Time;durP1;ratioP1;P1;durP2;ratioP2;P2;SDS_P1;SDS_P2;PMS_P1;PMS_P2;Temp;Humidity;BMP_temperature;BMP_pressure;BME280_temperature;BME280_humidity;BME280_pressure;Samples;Min_cycle;Max_cycle;Signal;HPM_P1;HPM_P2
2024/03/13 00:00:55;;;;;;;0.10;0.10;;;;;;;14.42;73.51;99585.31;7362357;19;20062;-59
2024/03/13 00:03:21;;;;;;;0.13;0.13;;;;;;;14.43;73.53;99583.53;7364750;19;20119;-61
2024/03/13 00:05:48;;;;;;;0.10;0.10;;;;;;;14.43;73.64;99578.28;7362088;19;20589;-60
2024/03/13 00:08:13;;;;;;;0.20;0.20;;;;;;;14.44;73.53;99574.72;7364454;19;20010;-60
2024/03/13 00:10:39;;;;;;;0.10;0.10;;;;;;;14.45;73.98;99571.19;7365462;19;20486;-60
2024/03/13 00:13:05;;;;;;;0.10;0.10;;;;;;;14.43;73.45;99565.16;7364087;19;20010;-60
2024/03/13 00:15:33;;;;;;;0.10;0.10;;;;;;;14.44;73.70;99569.47;7361041;19;19995;-60
2024/03/13 00:18:01;;;;;;;0.10;0.10;;;;;;;14.40;74.09;99557.47;7363559;19;20005;-60
2024/03/13 00:20:32;;;;;;;0.10;0.10;;;;;;;14.32;73.15;99538.66;7365104;19;20029;-60
2024/03/13 00:22:57;;;;;;;0.10;0.10;;;;;;;14.43;73.57;99573.03;7362692;19;20097;-61
2024/03/13 00:25:23;;;;;;;0.20;0.20;;;;;;;14.48;73.29;99569.25;7364676;19;20081;-60
2024/03/13 00:27:49;;;;;;;0.20;0.20;;;;;;;14.49;73.68;99551.69;7369578;19;20010;-61
2024/03/13 00:30:18;;;;;;;0.10;0.10;;;;;;;14.45;72.93;99544.91;7372423;19;20031;-60
2024/03/13 00:32:44;;;;;;;0.10;0.10;;;;;;;14.37;72.85;99536.63;7367772;19;20739;-60
2024/03/13 00:35:13;;;;;;;0.17;0.17;;;;;;;14.49;73.31;99547.28;7367497;19;20010;-61
2024/03/13 00:37:39;;;;;;;0.10;0.10;;;;;;;14.48;72.97;99547.38;7370437;19;20437;-61
2024/03/13 00:40:06;;;;;;;0.10;0.10;;;;;;;14.44;74.11;99551.09;7370379;19;20029;-61
2024/03/13 00:42:32;;;;;;;0.10;0.10;;;;;;;14.52;73.13;99554.16;7368884;19;20449;-61
2024/03/13 00:44:57;;;;;;;0.10;0.10;;;;;;;14.52;73.06;99551.53;7365379;19;20006;-60
2024/03/13 00:47:23;;;;;;;0.10;0.10;;;;;;;14.53;73.11;99526.94;7371833;19;20002;-60
2024/03/13 00:49:52;;;;;;;0.10;0.10;;;;;;;14.54;72.85;99528.63;7371237;19;20757;-60
2024/03/13 00:52:18;;;;;;;0.15;0.15;;;;;;;14.54;73.41;99518.13;7371471;19;20606;-61
2024/03/13 00:54:46;;;;;;;0.10;0.10;;;;;;;14.54;73.18;99534.72;7372309;19;20011;-60
2024/03/13 00:57:13;;;;;;;0.10;0.10;;;;;;;14.54;73.22;99515.50;7370717;19;20460;-61
2024/03/13 00:59:39;;;;;;;0.10;0.10;;;;;;;14.55;73.19;99519.84;7369223;19;20312;-60
2024/03/13 01:02:08;;;;;;;0.10;0.10;;;;;;;14.55;73.31;99535.59;7367994;19;20399;-61
2024/03/13 01:04:34;;;;;;;0.10;0.10;;;;;;;14.56;72.79;99526.78;7366412;19;20011;-60
2024/03/13 01:06:59;;;;;;;0.20;0.20;;;;;;;14.57;72.92;99552.13;7368697;19;20027;-60
2024/03/13 01:09:25;;;;;;;0.15;0.15;;;;;;;14.49;72.75;99530.69;7370287;19;20994;-61
2024/03/13 01:11:52;;;;;;;0.10;0.10;;;;;;;14.58;72.77;99518.81;7368987;19;20026;-60
2024/03/13 01:14:20;;;;;;;0.15;0.15;;;;;;;14.45;72.90;99487.13;7371226;19;20007;-61
2024/03/13 01:16:52;;;;;;;0.20;0.20;;;;;;;14.56;72.98;99526.78;7371305;19;20029;-61
2024/03/13 01:19:19;;;;;;;0.10;0.10;;;;;;;14.56;72.93;99529.41;7367967;19;19990;-61
2024/03/13 01:22:05;;;;;;;0.10;0.10;;;;;;;14.54;73.46;99511.09;7367510;19;20073;-59
2024/03/13 01:24:34;;;;;;;0.15;0.15;;;;;;;14.53;73.36;99521.69;7370002;19;20357;-61
2024/03/13 01:27:00;;;;;;;0.10;0.10;;;;;;;14.51;73.31;99513.91;7367258;19;20006;-61
2024/03/13 01:29:25;;;;;;;0.10;0.10;;;;;;;14.46;73.19;99502.78;7371044;19;20003;-60
2024/03/13 01:31:51;;;;;;;0.10;0.10;;;;;;;14.50;73.23;99517.47;7370021;19;20086;-61
2024/03/13 01:34:16;;;;;;;0.17;0.17;;;;;;;14.45;73.23;99497.63;7367813;19;20006;-60
2024/03/13 01:39:26;;;;;;;0.10;0.10;;;;;;;14.47;73.25;99511.50;7366585;19;20009;-60
2024/03/13 01:55:44;;;;;;;0.10;0.10;;;;;;;14.38;74.17;99491.03;7367492;19;20720;-61
2024/03/13 01:58:10;;;;;;;0.20;0.20;;;;;;;14.41;74.20;99507.47;7368214;19;19999;-60
2024/03/13 02:03:24;;;;;;;0.10;0.10;;;;;;;14.36;74.53;99485.03;7369882;19;20020;-60
2024/03/13 02:05:51;;;;;;;0.10;0.10;;;;;;;14.35;74.18;99491.22;7365673;19;20014;-60
2024/03/13 02:08:18;;;;;;;0.10;0.10;;;;;;;14.32;74.54;99496.63;7369061;19;20019;-59
2024/03/13 02:10:44;;;;;;;0.10;0.10;;;;;;;14.26;74.87;99482.09;7367192;19;20078;-59
2024/03/13 02:13:12;;;;;;;0.10;0.10;;;;;;;14.22;74.81;99484.03;7367504;19;20062;-61
2024/03/13 02:15:39;;;;;;;0.10;0.10;;;;;;;14.17;75.02;99493.94;7364122;19;20025;-62
2024/03/13 02:18:14;;;;;;;0.10;0.10;;;;;;;14.12;75.61;99490.75;7361982;19;20023;-61
2024/03/13 02:20:40;;;;;;;0.10;0.10;;;;;;;14.06;75.31;99491.09;7368094;19;19994;-62
2024/03/13 02:23:07;;;;;;;0.10;0.10;;;;;;;13.88;75.89;99469.34;7367296;19;20009;-62
2024/03/13 02:25:33;;;;;;;0.10;0.10;;;;;;;13.94;76.48;99474.25;7365612;19;20489;-62
2024/03/13 02:27:59;;;;;;;0.10;0.10;;;;;;;13.91;76.24;99471.78;7367975;19;20031;-63
2024/03/13 02:30:25;;;;;;;0.10;0.10;;;;;;;13.88;76.32;99460.63;7364865;19;20917;-62
2024/03/13 02:32:50;;;;;;;0.10;0.10;;;;;;;13.82;76.35;99456.56;7366282;19;20018;-62
2024/03/13 02:35:16;;;;;;;0.10;0.10;;;;;;;13.81;76.76;99467.16;7365189;19;20030;-62
2024/03/13 02:37:41;;;;;;;0.10;0.10;;;;;;;13.76;77.60;99467.41;7364761;19;20390;-62
2024/03/13 02:40:10;;;;;;;0.10;0.10;;;;;;;13.74;76.83;99445.66;7367755;19;20475;-63
2024/03/13 02:42:35;;;;;;;0.10;0.10;;;;;;;13.65;77.24;99444.38;7366390;19;20010;-63
2024/03/13 02:45:02;;;;;;;0.10;0.10;;;;;;;13.63;77.72;99459.34;7364684;19;20006;-63
2024/03/13 02:47:28;;;;;;;0.10;0.10;;;;;;;13.60;77.47;99435.94;7371205;19;20019;-63
2024/03/13 02:49:53;;;;;;;0.13;0.13;;;;;;;13.58;77.89;99458.75;7366632;19;20502;-63
2024/03/13 02:52:18;;;;;;;0.10;0.10;;;;;;;13.58;77.51;99453.50;7362699;19;21314;-63
2024/03/13 02:54:44;;;;;;;0.20;0.20;;;;;;;13.56;77.88;99455.38;7365406;19;20003;-62
2024/03/13 02:57:09;;;;;;;0.10;0.10;;;;;;;13.56;78.03;99470.28;7366903;19;20010;-63
2024/03/13 02:59:35;;;;;;;0.10;0.10;;;;;;;13.55;78.27;99464.19;7362606;19;20412;-63
2024/03/13 03:02:00;;;;;;;0.10;0.10;;;;;;;13.56;77.89;99489.47;7366612;19;20090;-63
2024/03/13 03:04:26;;;;;;;0.15;0.15;;;;;;;13.57;77.96;99482.47;7364048;19;20809;-63
2024/03/13 03:06:51;;;;;;;0.10;0.10;;;;;;;13.57;78.42;99495.56;7365701;19;20054;-63
2024/03/13 03:09:17;;;;;;;0.10;0.10;;;;;;;13.59;78.50;99439.50;7365520;19;20026;-63
2024/03/13 03:11:43;;;;;;;0.10;0.10;;;;;;;13.60;78.44;99446.41;7360376;19;20110;-63
2024/03/13 03:14:10;;;;;;;0.10;0.10;;;;;;;13.60;78.24;99464.78;7366387;19;20024;-63
2024/03/13 03:16:35;;;;;;;0.10;0.10;;;;;;;13.64;78.11;99462.84;7364375;19;20002;-64
2024/03/13 03:19:01;;;;;;;0.10;0.10;;;;;;;13.63;78.56;99446.22;7365664;19;20657;-62
2024/03/13 03:21:27;;;;;;;0.10;0.10;;;;;;;13.64;78.07;99434.84;7365310;19;20733;-63
2024/03/13 03:23:53;;;;;;;0.10;0.10;;;;;;;13.53;78.08;99408.34;7368542;19;20511;-62
2024/03/13 03:26:19;;;;;;;0.10;0.10;;;;;;;13.65;78.34;99439.16;7358271;19;20785;-63
2024/03/13 03:28:44;;;;;;;0.10;0.10;;;;;;;13.66;78.44;99435.59;7362743;19;20031;-62
2024/03/13 03:31:10;;;;;;;0.10;0.10;;;;;;;13.65;78.34;99431.28;7362807;19;20339;-62
2024/03/13 03:33:37;;;;;;;0.15;0.15;;;;;;;13.61;78.30;99410.53;7361001;19;20035;-63
2024/03/13 03:36:05;;;;;;;0.10;0.10;;;;;;;13.67;78.45;99418.06;7366390;19;20010;-63
2024/03/13 03:38:33;;;;;;;0.10;0.10;;;;;;;13.68;78.30;99431.09;7361592;19;20028;-61
2024/03/13 03:40:59;;;;;;;0.10;0.10;;;;;;;13.69;78.34;99427.56;7365791;19;20868;-63
2024/03/13 03:43:26;;;;;;;0.10;0.10;;;;;;;13.70;78.37;99424.00;7363079;19;20003;-62
2024/03/13 03:45:53;;;;;;;0.10;0.10;;;;;;;13.71;78.32;99411.72;7362880;19;20030;-62
2024/03/13 03:48:18;;;;;;;0.10;0.10;;;;;;;13.70;78.32;99410.88;7363789;19;20006;-62
2024/03/13 03:50:44;;;;;;;0.17;0.17;;;;;;;13.70;78.22;99408.25;7360191;19;20449;-62
2024/03/13 03:53:09;;;;;;;0.10;0.10;;;;;;;13.70;78.13;99410.88;7366198;19;20022;-62
2024/03/13 03:55:36;;;;;;;0.10;0.10;;;;;;;13.71;78.13;99437.97;7363008;19;20006;-63
2024/03/13 03:58:01;;;;;;;0.10;0.10;;;;;;;13.69;78.16;99403.94;7364506;19;20323;-63
2024/03/13 04:00:30;;;;;;;0.17;0.17;;;;;;;13.69;78.02;99414.44;7373990;19;20021;-63
2024/03/13 04:02:55;;;;;;;0.10;0.10;;;;;;;13.68;78.18;99396.13;7373180;19;20370;-63
2024/03/13 04:05:21;;;;;;;0.10;0.10;;;;;;;13.67;78.08;99432.03;7371250;19;19999;-62
2024/03/13 04:07:49;;;;;;;0.10;0.10;;;;;;;13.66;78.33;99401.47;7371995;19;20002;-63
2024/03/13 04:10:14;;;;;;;0.20;0.20;;;;;;;13.67;78.06;99404.94;7369247;19;20037;-63
2024/03/13 04:12:39;;;;;;;0.20;0.20;;;;;;;13.52;78.45;99411.88;7370895;19;20494;-63
2024/03/13 04:15:05;;;;;;;0.10;0.10;;;;;;;13.66;78.36;99424.25;7372664;19;19999;-63
2024/03/13 04:17:30;;;;;;;0.10;0.10;;;;;;;13.52;78.44;99385.66;7347553;19;20015;-64
2024/03/13 04:19:57;;;;;;;0.10;0.10;;;;;;;13.65;78.34;99412.91;7367729;19;20590;-63
2024/03/13 04:22:22;;;;;;;0.15;0.15;;;;;;;13.65;78.54;99406.81;7372931;19;20003;-63
2024/03/13 04:24:48;;;;;;;0.10;0.10;;;;;;;13.62;78.70;99402.56;7370669;19;20002;-63
2024/03/13 04:27:13;;;;;;;0.10;0.10;;;;;;;13.63;78.74;99406.88;7367664;19;20490;-63
2024/03/13 04:29:39;;;;;;;0.10;0.10;;;;;;;13.64;78.64;99408.59;7368137;19;20010;-62
2024/03/13 04:32:04;;;;;;;0.10;0.10;;;;;;;13.66;78.46;99417.22;7373357;19;20011;-63
2024/03/13 04:34:30;;;;;;;0.10;0.10;;;;;;;13.68;78.40;99402.22;7372604;19;20002;-63
2024/03/13 04:36:55;;;;;;;0.10;0.10;;;;;;;13.26;78.78;99334.69;7372217;19;20031;-63
2024/03/13 04:39:21;;;;;;;0.10;0.10;;;;;;;13.70;78.66;99410.88;7371786;19;20002;-62
2024/03/13 04:41:49;;;;;;;0.10;0.10;;;;;;;13.71;78.43;99417.81;7372519;19;20034;-63
2024/03/13 04:44:16;;;;;;;0.10;0.10;;;;;;;13.75;78.39;99416.72;7371625;19;20382;-62
2024/03/13 04:46:43;;;;;;;0.10;0.10;;;;;;;13.64;78.47;99400.72;7371026;19;20094;-63
2024/03/13 04:49:10;;;;;;;0.17;0.17;;;;;;;13.74;78.66;99412.41;7371326;19;20003;-63
2024/03/13 04:51:37;;;;;;;0.20;0.20;;;;;;;13.77;78.37;99401.72;7371396;19;20014;-62
2024/03/13 04:54:03;;;;;;;0.10;0.10;;;;;;;13.69;78.41;99403.94;7371322;19;20003;-62
2024/03/13 04:56:28;;;;;;;0.10;0.10;;;;;;;13.74;78.84;99394.03;7369442;19;20029;-63
2024/03/13 04:58:54;;;;;;;0.10;0.10;;;;;;;13.83;78.38;99410.16;7368914;19;20018;-63
2024/03/13 05:01:19;;;;;;;0.10;0.10;;;;;;;13.82;78.85;99409.34;7370887;19;20030;-63
2024/03/13 05:03:45;;;;;;;0.10;0.10;;;;;;;13.84;78.38;99401.34;7371337;19;20003;-62
2024/03/13 05:06:10;;;;;;;0.10;0.10;;;;;;;13.87;78.45;99437.94;7366221;19;20005;-63
2024/03/13 05:08:36;;;;;;;0.17;0.17;;;;;;;13.86;78.48;99417.88;7369498;19;19994;-63
2024/03/13 05:11:01;;;;;;;0.10;0.10;;;;;;;13.86;78.87;99410.00;7369165;19;20054;-62
2024/03/13 05:13:27;;;;;;;0.20;0.20;;;;;;;13.89;78.85;99409.81;7371864;19;20010;-63
2024/03/13 05:15:52;;;;;;;0.10;0.10;;;;;;;13.87;78.37;99403.81;7366774;19;20466;-62
2024/03/13 05:18:21;;;;;;;0.10;0.10;;;;;;;13.90;78.55;99415.00;7369964;19;20082;-62
2024/03/13 05:20:46;;;;;;;0.10;0.10;;;;;;;13.89;78.72;99413.31;7366638;19;20807;-62
2024/03/13 05:23:12;;;;;;;0.10;0.10;;;;;;;13.89;78.81;99430.81;7370162;19;19999;-63
2024/03/13 05:25:37;;;;;;;0.10;0.10;;;;;;;13.89;78.97;99426.44;7361185;19;20011;-62
2024/03/13 05:28:03;;;;;;;0.13;0.13;;;;;;;13.91;78.82;99421.94;7370629;19;20032;-62
2024/03/13 05:30:29;;;;;;;0.20;0.20;;;;;;;13.92;78.64;99404.41;7368666;19;20023;-62
2024/03/13 05:32:56;;;;;;;0.10;0.10;;;;;;;13.91;78.74;99408.81;7367725;19;20406;-62
2024/03/13 05:35:22;;;;;;;0.10;0.10;;;;;;;13.91;78.44;99407.97;7370623;19;20003;-62
2024/03/13 05:37:47;;;;;;;0.10;0.10;;;;;;;13.93;78.24;99412.19;7371039;19;20015;-62
2024/03/13 05:40:16;;;;;;;0.10;0.10;;;;;;;13.94;78.74;99402.56;7371185;19;20002;-62
2024/03/13 05:42:42;;;;;;;0.10;0.10;;;;;;;13.96;78.34;99395.44;7368273;19;20365;-62
2024/03/13 05:45:08;;;;;;;0.20;0.20;;;;;;;13.95;78.73;99409.50;7367644;19;20029;-62
2024/03/13 05:47:33;;;;;;;0.10;0.10;;;;;;;13.94;78.57;99423.56;7370569;19;20013;-62
2024/03/13 05:49:59;;;;;;;0.10;0.10;;;;;;;13.95;78.66;99399.00;7354195;19;20629;-62
2024/03/13 05:52:24;;;;;;;0.20;0.20;;;;;;;13.97;78.31;99405.00;7369307;19;20003;-62
2024/03/13 05:54:50;;;;;;;0.20;0.20;;;;;;;13.96;78.35;99405.94;7366135;19;19999;-62
2024/03/13 05:57:15;;;;;;;0.10;0.10;;;;;;;13.97;78.25;99407.63;7368774;19;20488;-62
2024/03/13 05:59:41;;;;;;;0.10;0.10;;;;;;;13.85;78.68;99392.59;7370589;19;20010;-62
2024/03/13 06:02:06;;;;;;;0.10;0.10;;;;;;;13.99;78.58;99416.25;7368334;19;20522;-60
2024/03/13 06:04:33;;;;;;;0.10;0.10;;;;;;;13.89;78.60;99394.06;7368191;19;20010;-62
2024/03/13 06:06:59;;;;;;;0.13;0.13;;;;;;;14.00;78.40;99403.03;7363596;19;20422;-61
2024/03/13 06:09:24;;;;;;;0.10;0.10;;;;;;;14.00;78.42;99428.44;7367930;19;20013;-62
2024/03/13 06:11:50;;;;;;;0.20;0.20;;;;;;;14.02;78.63;99384.56;7366220;19;19994;-62
2024/03/13 06:14:17;;;;;;;0.10;0.10;;;;;;;14.01;78.44;99396.84;7370130;19;20358;-62
2024/03/13 06:16:42;;;;;;;0.20;0.20;;;;;;;14.03;78.79;99402.00;7369566;19;20006;-62
2024/03/13 06:19:08;;;;;;;0.10;0.10;;;;;;;14.02;78.73;99393.28;7365650;19;20462;-62
2024/03/13 06:21:33;;;;;;;0.10;0.10;;;;;;;14.02;78.71;99400.31;7367952;19;20023;-62
2024/03/13 06:24:00;;;;;;;0.15;0.15;;;;;;;14.02;78.34;99392.44;7368808;19;20023;-61
2024/03/13 06:26:27;;;;;;;0.10;0.10;;;;;;;14.06;78.83;99433.34;7365813;19;20019;-62
2024/03/13 06:31:42;;;;;;;0.10;0.10;;;;;;;14.06;78.28;99412.34;7368867;19;20058;-62
2024/03/13 06:34:08;;;;;;;0.10;0.10;;;;;;;13.91;78.52;99365.97;7362844;19;20007;-62
2024/03/13 06:36:36;;;;;;;0.10;0.10;;;;;;;14.04;78.68;99387.97;7364975;19;20466;-62
2024/03/13 06:39:01;;;;;;;;;;;;;;;14.09;78.44;99392.94;7366676;19;20396;-62
2024/03/13 06:41:27;;;;;;;0.10;0.10;;;;;;;14.00;78.17;99403.03;7366760;19;19982;-62
2024/03/13 06:43:53;;;;;;;0.10;0.10;;;;;;;14.05;78.24;99409.81;7365332;19;20006;-62
2024/03/13 06:46:18;;;;;;;0.20;0.20;;;;;;;14.02;78.72;99403.78;7362677;19;20003;-61
2024/03/13 06:48:44;;;;;;;0.20;0.20;;;;;;;13.90;78.32;99375.63;7364893;19;20036;-61
2024/03/13 06:51:12;;;;;;;0.10;0.10;;;;;;;14.03;78.51;99407.25;7366304;19;20013;-62
2024/03/13 06:53:38;;;;;;;0.10;0.10;;;;;;;13.89;78.96;99378.31;7365144;19;20010;-62
2024/03/13 06:56:04;;;;;;;0.10;0.10;;;;;;;14.03;78.67;99386.25;7364606;19;20013;-63
2024/03/13 06:58:30;;;;;;;0.10;0.10;;;;;;;14.03;78.93;99396.75;7361163;19;20033;-61
2024/03/13 07:00:55;;;;;;;0.20;0.20;;;;;;;13.94;78.61;99385.03;7366432;19;19999;-61
2024/03/13 07:03:23;;;;;;;0.17;0.17;;;;;;;14.08;78.59;99420.97;7362531;19;20014;-61
2024/03/13 07:05:51;;;;;;;0.13;0.13;;;;;;;14.04;78.96;99401.09;7364483;19;20007;-62
2024/03/13 07:08:16;;;;;;;;;;;;;;;14.13;78.78;99403.16;7362913;19;20637;-62
2024/03/13 07:10:42;;;;;;;0.10;0.10;;;;;;;14.10;78.74;99411.25;7362848;19;19911;-62
2024/03/13 07:13:08;;;;;;;0.10;0.10;;;;;;;14.11;78.43;99415.53;7363833;19;20002;-61
2024/03/13 07:15:34;;;;;;;0.10;0.10;;;;;;;14.11;78.65;99405.03;7363974;19;19999;-61
2024/03/13 07:18:00;;;;;;;0.13;0.13;;;;;;;14.10;78.89;99407.78;7363425;19;20010;-62
2024/03/13 07:20:25;;;;;;;0.10;0.10;;;;;;;14.11;79.01;99420.78;7361794;19;20003;-61
2024/03/13 07:22:50;;;;;;;0.10;0.10;;;;;;;14.14;78.80;99425.88;7364127;19;20764;-63
2024/03/13 07:25:17;;;;;;;0.10;0.10;;;;;;;14.14;78.67;99409.25;7362656;19;19999;-60
2024/03/13 07:27:43;;;;;;;0.10;0.10;;;;;;;14.17;78.76;99433.56;7364258;19;20002;-61
2024/03/13 07:30:09;;;;;;;0.10;0.10;;;;;;;14.19;79.07;99433.47;7360900;19;20014;-62
2024/03/13 07:32:34;;;;;;;0.10;0.10;;;;;;;14.09;78.86;99411.31;7217228;19;2821828;-62
2024/03/13 07:35:03;;;;;;;0.10;0.10;;;;;;;14.12;78.95;99429.50;7362779;19;20019;-61
2024/03/13 07:37:29;;;;;;;0.10;0.10;;;;;;;14.21;78.78;99432.47;7362836;19;20813;-61
2024/03/13 07:39:55;;;;;;;0.10;0.10;;;;;;;14.25;78.86;99430.50;7364542;19;19998;-62
2024/03/13 07:42:20;;;;;;;0.10;0.10;;;;;;;14.24;78.36;99434.91;7364558;19;20007;-60
2024/03/13 07:44:46;;;;;;;0.10;0.10;;;;;;;14.23;78.41;99425.31;7360513;19;20002;-61
2024/03/13 07:47:12;;;;;;;0.10;0.10;;;;;;;14.25;78.44;99428.72;7367955;19;19998;-61
2024/03/13 07:49:37;;;;;;;0.10;0.10;;;;;;;14.24;78.74;99434.91;7365690;19;20489;-61
2024/03/13 07:52:04;;;;;;;0.10;0.10;;;;;;;14.25;78.47;99438.38;7360568;19;21215;-62
2024/03/13 07:54:30;;;;;;;0.10;0.10;;;;;;;14.30;78.79;99440.75;7366056;19;20460;-61
2024/03/13 07:56:55;;;;;;;0.15;0.15;;;;;;;14.28;78.82;99446.91;7359946;19;20002;-61
2024/03/13 07:59:25;;;;;;;0.10;0.10;;;;;;;14.29;78.83;99453.00;7365502;19;19999;-62
2024/03/13 08:01:51;;;;;;;0.20;0.20;;;;;;;14.31;78.93;99463.44;7365133;19;20007;-61
2024/03/13 08:04:16;;;;;;;0.10;0.10;;;;;;;14.32;78.77;99459.88;7361233;19;20009;-61
2024/03/13 08:06:42;;;;;;;0.10;0.10;;;;;;;14.33;78.86;99485.19;7362950;19;20103;-62
2024/03/13 08:09:07;;;;;;;0.10;0.10;;;;;;;14.35;79.15;99497.31;7365182;19;20002;-62
2024/03/13 08:11:32;;;;;;;0.10;0.10;;;;;;;14.36;79.11;99498.16;7361886;19;20692;-61
2024/03/13 08:14:01;;;;;;;0.10;0.10;;;;;;;14.36;78.85;99513.91;7363115;19;20009;-62
2024/03/13 08:16:26;;;;;;;0.20;0.20;;;;;;;14.36;78.73;99513.91;7365979;19;20002;-62
2024/03/13 08:18:52;;;;;;;0.10;0.10;;;;;;;14.35;78.84;99528.00;7362147;19;20543;-62
2024/03/13 08:21:17;;;;;;;0.10;0.10;;;;;;;14.28;78.28;99523.06;7351337;19;20344;-61
2024/03/13 08:23:44;;;;;;;0.10;0.10;;;;;;;14.30;78.39;99545.78;7363590;19;20399;-62
2024/03/13 08:26:10;;;;;;;0.10;0.10;;;;;;;14.24;78.12;99536.44;7360065;19;20343;-62
2024/03/13 08:28:37;;;;;;;0.10;0.10;;;;;;;14.17;78.17;99525.47;7361508;19;20002;-62
2024/03/13 08:31:05;;;;;;;0.10;0.10;;;;;;;14.11;78.15;99530.22;7363612;19;20014;-61
2024/03/13 08:33:31;;;;;;;0.10;0.10;;;;;;;14.02;78.52;99544.69;7361559;19;20074;-62
2024/03/13 08:35:57;;;;;;;0.10;0.10;;;;;;;13.97;78.73;99546.72;7364196;19;20023;-61
2024/03/13 08:38:23;;;;;;;0.10;0.10;;;;;;;13.88;78.62;99544.59;7365969;19;20325;-62
2024/03/13 08:40:48;;;;;;;0.10;0.10;;;;;;;13.85;79.04;99558.75;7343487;19;20085;-62
2024/03/13 08:43:18;;;;;;;0.10;0.10;;;;;;;13.82;78.35;99565.94;7362183;19;20037;-62
2024/03/13 08:45:44;;;;;;;0.10;0.10;;;;;;;13.74;78.78;99567.19;7367440;19;20859;-62
2024/03/13 08:48:11;;;;;;;0.20;0.20;;;;;;;13.66;78.45;99569.38;7372101;19;20568;-61
2024/03/13 08:50:36;;;;;;;0.10;0.10;;;;;;;13.61;79.12;99571.41;7369944;19;20098;-62
2024/03/13 08:53:02;;;;;;;0.10;0.10;;;;;;;13.57;78.90;99566.38;7370927;19;20062;-62
2024/03/13 08:55:28;;;;;;;0.17;0.17;;;;;;;13.54;78.46;99571.81;7371548;19;20110;-60
2024/03/13 08:57:54;;;;;;;0.10;0.10;;;;;;;13.48;78.74;99568.59;7369126;19;19995;-61
2024/03/13 09:00:20;;;;;;;0.10;0.10;;;;;;;13.44;79.34;99563.59;7370172;19;20002;-61
2024/03/13 09:02:46;;;;;;;0.10;0.10;;;;;;;13.39;78.99;99562.97;7369717;19;20482;-61
2024/03/13 09:05:11;;;;;;;0.10;0.10;;;;;;;13.36;79.17;99568.38;7365629;19;20007;-61
2024/03/13 09:07:40;;;;;;;0.10;0.10;;;;;;;13.23;79.43;99557.69;7371739;19;20094;-62
2024/03/13 09:10:05;;;;;;;0.08;0.08;;;;;;;13.32;79.60;99570.28;7369853;19;20032;-62
2024/03/13 09:12:31;;;;;;;0.10;0.10;;;;;;;13.29;79.60;99593.22;7364107;19;20007;-62
2024/03/13 09:14:56;;;;;;;0.17;0.17;;;;;;;13.24;79.56;99586.44;7372541;19;20002;-61
2024/03/13 09:17:22;;;;;;;0.10;0.10;;;;;;;13.23;79.18;99590.00;7369896;19;19999;-62
2024/03/13 09:19:49;;;;;;;0.10;0.10;;;;;;;13.20;79.11;99590.09;7363297;19;20007;-62
2024/03/13 09:22:17;;;;;;;0.10;0.10;;;;;;;13.17;79.38;99594.66;7371766;19;20062;-61
2024/03/13 09:24:43;;;;;;;0.10;0.10;;;;;;;13.14;79.44;99594.81;7369523;19;20006;-62
2024/03/13 09:27:08;;;;;;;0.10;0.10;;;;;;;13.12;79.45;99597.50;7365214;19;20014;-62
2024/03/13 09:29:34;;;;;;;0.10;0.10;;;;;;;13.09;79.65;99597.69;7372082;19;19999;-62
2024/03/13 09:32:00;;;;;;;0.10;0.10;;;;;;;13.07;79.59;99594.25;7364401;19;20010;-62
2024/03/13 09:34:25;;;;;;;0.13;0.13;;;;;;;13.05;79.66;99601.38;7368150;19;20089;-62
2024/03/13 09:36:51;;;;;;;0.20;0.20;;;;;;;13.01;79.64;99589.34;7365055;19;20010;-61
2024/03/13 09:39:16;;;;;;;0.10;0.10;;;;;;;13.02;79.58;99596.28;7367168;19;20351;-60
2024/03/13 09:41:44;;;;;;;0.20;0.20;;;;;;;13.01;79.93;99605.06;7370393;19;20011;-62
2024/03/13 09:44:11;;;;;;;0.10;0.10;;;;;;;12.99;79.71;99601.69;7366835;19;20007;-61
2024/03/13 09:46:39;;;;;;;0.10;0.10;;;;;;;12.98;79.87;99610.47;7365164;19;20009;-62
2024/03/13 09:49:06;;;;;;;0.10;0.10;;;;;;;12.98;79.60;99611.31;7368551;19;20355;-62
2024/03/13 09:51:34;;;;;;;0.20;0.20;;;;;;;12.97;79.77;99616.63;7368158;19;20238;-61
2024/03/13 09:54:02;;;;;;;0.13;0.13;;;;;;;12.99;79.75;99614.78;7370741;19;21067;-62
2024/03/13 09:56:29;;;;;;;;;;;;;;;13.02;78.94;99622.47;7366445;19;20018;-61
2024/03/13 09:58:56;;;;;;;0.10;0.10;;;;;;;12.99;79.31;99625.28;7369481;19;20642;-62
2024/03/13 10:01:35;;;;;;;0.10;0.10;;;;;;;13.00;79.57;99619.09;7370638;19;20003;-60
2024/03/13 10:04:12;;;;;;;0.17;0.17;;;;;;;12.98;79.76;99613.09;7366099;19;20017;-61
2024/03/13 10:06:43;;;;;;;0.13;0.13;;;;;;;12.98;79.87;99610.47;7362170;19;20013;-62
2024/03/13 10:09:12;;;;;;;0.10;0.10;;;;;;;12.96;79.96;99617.56;7368532;19;20010;-61
2024/03/13 10:11:45;;;;;;;0.10;0.10;;;;;;;12.97;80.30;99611.38;7365289;19;20475;-61
2024/03/13 10:14:11;;;;;;;0.10;0.10;;;;;;;12.97;80.20;99620.09;7368295;19;20010;-62
2024/03/13 10:16:42;;;;;;;0.10;0.10;;;;;;;12.99;80.06;99620.03;7368161;19;20381;-61
2024/03/13 10:19:15;;;;;;;0.10;0.10;;;;;;;13.02;80.24;99622.47;7365646;19;20017;-62
2024/03/13 10:21:42;;;;;;;0.10;0.10;;;;;;;12.90;80.32;99607.38;7364197;19;20644;-62
2024/03/13 10:24:10;;;;;;;0.20;0.20;;;;;;;13.07;80.33;99630.97;7369201;19;20029;-62
2024/03/13 10:26:40;;;;;;;0.10;0.10;;;;;;;13.10;80.82;99619.50;7364835;19;20027;-62
2024/03/13 10:29:08;;;;;;;0.10;0.10;;;;;;;13.08;80.37;99616.94;7366622;19;20062;-62
2024/03/13 10:31:36;;;;;;;0.10;0.10;;;;;;;13.20;80.21;99620.72;7366916;19;20010;-62
2024/03/13 10:34:02;;;;;;;0.10;0.10;;;;;;;13.17;80.21;99611.22;7364878;19;20597;-61
2024/03/13 10:36:29;;;;;;;0.10;0.10;;;;;;;13.27;80.12;99626.53;7366057;19;20006;-61
2024/03/13 10:38:56;;;;;;;0.10;0.10;;;;;;;13.32;80.47;99629.75;7367108;19;20010;-61
2024/03/13 10:41:21;;;;;;;;;;;;;;;13.38;80.23;99632.06;7368184;19;20010;-61
2024/03/13 10:43:47;;;;;;;0.10;0.10;;;;;;;13.40;80.43;99648.59;7366545;19;19921;-62
2024/03/13 10:46:12;;;;;;;0.10;0.10;;;;;;;13.42;80.46;99637.06;7364960;19;20034;-62
2024/03/13 10:48:41;;;;;;;0.10;0.10;;;;;;;13.47;80.18;99644.72;7369901;19;20497;-62
2024/03/13 10:51:12;;;;;;;0.10;0.10;;;;;;;13.54;79.98;99645.25;7363376;19;20582;-62
2024/03/13 10:53:38;;;;;;;0.10;0.10;;;;;;;13.48;80.47;99635.91;7365097;19;20026;-62
2024/03/13 10:56:15;;;;;;;0.10;0.10;;;;;;;13.58;80.21;99641.53;7363646;19;20002;-62
2024/03/13 10:58:46;;;;;;;0.10;0.10;;;;;;;13.61;80.31;99651.88;7366170;19;20466;-62
2024/03/13 11:01:18;;;;;;;0.10;0.10;;;;;;;13.61;80.31;99652.72;7361437;19;20019;-62
2024/03/13 11:03:46;;;;;;;0.10;0.10;;;;;;;13.60;80.26;99648.41;7362887;19;20009;-62
2024/03/13 11:06:14;;;;;;;0.10;0.10;;;;;;;13.62;79.85;99638.66;7355080;19;20016;-62
2024/03/13 11:08:41;;;;;;;0.15;0.15;;;;;;;13.65;79.94;99638.53;7361135;19;20015;-62
2024/03/13 11:11:12;;;;;;;0.13;0.13;;;;;;;13.71;80.47;99643.44;7362331;19;22254;-62
2024/03/13 11:13:42;;;;;;;0.15;0.15;;;;;;;13.74;80.24;99648.53;7366814;19;20030;-62
2024/03/13 11:16:09;;;;;;;0.10;0.10;;;;;;;13.69;80.30;99634.81;7366102;19;20411;-62
2024/03/13 11:18:42;;;;;;;0.10;0.10;;;;;;;13.82;80.21;99649.91;7365030;19;20014;-62
2024/03/13 11:21:09;;;;;;;0.10;0.10;;;;;;;13.87;80.07;99650.50;7364782;19;20434;-62
2024/03/13 11:23:43;;;;;;;0.10;0.10;;;;;;;13.90;80.48;99650.34;7365276;19;20003;-62
2024/03/13 11:26:12;;;;;;;0.10;0.10;;;;;;;13.91;80.13;99645.00;7361172;19;20089;-62
2024/03/13 11:28:38;;;;;;;0.10;0.10;;;;;;;13.96;80.11;99657.88;7360827;19;19998;-62
2024/03/13 11:31:05;;;;;;;0.10;0.10;;;;;;;14.04;80.64;99666.22;7363993;19;19999;-62
2024/03/13 11:33:31;;;;;;;0.10;0.10;;;;;;;14.12;80.14;99658.75;7361022;19;20018;-63
2024/03/13 11:36:01;;;;;;;0.15;0.15;;;;;;;14.19;80.29;99665.38;7366096;19;20078;-63
2024/03/13 11:38:27;;;;;;;0.10;0.10;;;;;;;14.17;80.55;99643.59;7366310;19;20335;-63
2024/03/13 11:40:54;;;;;;;0.10;0.10;;;;;;;14.33;80.06;99645.38;7366120;19;20477;-62
2024/03/13 11:43:25;;;;;;;0.10;0.10;;;;;;;14.40;80.09;99652.03;7364814;19;20020;-62
2024/03/13 11:45:52;;;;;;;0.17;0.17;;;;;;;14.43;79.83;99654.47;7364611;19;20027;-63
2024/03/13 11:48:21;;;;;;;0.10;0.10;;;;;;;14.51;80.11;99654.94;7354896;19;20003;-62
2024/03/13 11:51:08;;;;;;;0.10;0.10;;;;;;;14.59;79.76;99663.22;7363907;19;19998;-62
2024/03/13 11:53:35;;;;;;;0.10;0.10;;;;;;;14.48;79.61;99639.31;7362117;19;20006;-63